createdAt,value
2023-03-13T00:01:40.942Z,14.66
2023-03-13T00:04:08.766Z,14.93
2023-03-13T00:06:37.900Z,14.82
2023-03-13T00:09:09.587Z,14.95
2023-03-13T00:11:37.435Z,15.08
2023-03-13T00:14:07.057Z,15.03
2023-03-13T00:16:37.464Z,14.92
2023-03-13T00:19:06.904Z,14.87
2023-03-13T00:21:34.810Z,14.90
2023-03-13T00:24:02.660Z,15.01
2023-03-13T00:26:31.896Z,15.06
2023-03-13T00:28:59.776Z,14.89
2023-03-13T00:31:28.946Z,14.89
2023-03-13T00:33:59.685Z,14.81
2023-03-13T00:36:29.293Z,14.93
2023-03-13T00:38:57.948Z,14.95
2023-03-13T00:41:28.043Z,15.00
2023-03-13T00:43:57.964Z,15.06
2023-03-13T00:46:27.996Z,14.89
2023-03-13T00:48:55.864Z,15.03
2023-03-13T00:51:26.889Z,14.98
2023-03-13T00:53:55.396Z,14.98
2023-03-13T00:56:23.323Z,14.91
2023-03-13T00:58:51.683Z,14.77
2023-03-13T01:01:22.626Z,14.97
2023-03-13T01:03:52.642Z,14.88
2023-03-13T01:06:22.898Z,15.04
2023-03-13T01:08:51.268Z,14.88
2023-03-13T01:11:21.873Z,14.82
2023-03-13T01:13:50.497Z,15.00
2023-03-13T01:16:21.917Z,14.95
2023-03-13T01:18:52.179Z,14.89
2023-03-13T01:21:20.930Z,14.88
2023-03-13T01:23:49.852Z,15.02
2023-03-13T01:26:18.279Z,14.91
2023-03-13T01:28:46.537Z,15.28
2023-03-13T01:31:15.457Z,15.10
2023-03-13T01:33:44.569Z,15.29
2023-03-13T01:36:12.523Z,15.39
2023-03-13T01:38:40.679Z,15.24
2023-03-13T01:41:10.226Z,15.29
2023-03-13T01:43:38.837Z,15.25
2023-03-13T01:46:14.491Z,15.53
2023-03-13T01:48:49.720Z,15.23
2023-03-13T01:51:22.440Z,15.19
2023-03-13T01:53:55.214Z,15.11
2023-03-13T01:56:28.785Z,15.42
2023-03-13T01:58:59.202Z,15.36
2023-03-13T02:01:28.127Z,15.33
2023-03-13T02:03:59.030Z,15.17
2023-03-13T02:06:30.775Z,15.31
2023-03-13T02:09:03.056Z,15.40
2023-03-13T02:11:39.682Z,15.22
2023-03-13T02:14:07.602Z,15.63
2023-03-13T02:16:37.381Z,14.99
2023-03-13T02:19:18.273Z,14.90
2023-03-13T02:21:52.874Z,14.88
2023-03-13T02:24:29.183Z,14.89
2023-03-13T02:26:58.481Z,14.85
2023-03-13T02:29:26.848Z,14.67
2023-03-13T02:31:55.068Z,14.62
2023-03-13T02:34:26.825Z,14.32
2023-03-13T02:36:55.054Z,14.19
2023-03-13T02:39:25.987Z,14.42
2023-03-13T02:41:54.372Z,14.09
2023-03-13T02:44:23.504Z,14.34
2023-03-13T02:46:53.091Z,14.01
2023-03-13T02:49:25.200Z,13.68
2023-03-13T02:51:54.627Z,13.73
2023-03-13T02:54:27.642Z,13.75
2023-03-13T02:56:58.631Z,13.50
2023-03-13T02:59:28.100Z,13.78
2023-03-13T03:01:55.953Z,14.00
2023-03-13T03:04:25.431Z,13.93
2023-03-13T03:06:54.064Z,13.83
2023-03-13T03:09:22.364Z,13.80
2023-03-13T03:11:50.600Z,13.97
2023-03-13T03:14:18.433Z,13.76
2023-03-13T03:16:47.740Z,13.82
2023-03-13T03:19:15.859Z,13.68
2023-03-13T03:21:43.711Z,13.69
2023-03-13T03:24:11.486Z,13.57
2023-03-13T03:26:39.329Z,13.46
2023-03-13T03:29:08.257Z,13.73
2023-03-13T03:31:36.404Z,13.89
2023-03-13T03:34:05.538Z,13.97
2023-03-13T03:36:33.266Z,13.70
2023-03-13T03:39:01.011Z,13.95
2023-03-13T03:41:28.879Z,13.82
2023-03-13T03:43:56.708Z,13.77
2023-03-13T03:46:24.683Z,13.99
2023-03-13T03:48:52.437Z,13.88
2023-03-13T03:51:21.696Z,13.81
2023-03-13T03:53:49.429Z,14.01
2023-03-13T03:56:17.228Z,13.80
2023-03-13T03:58:45.380Z,13.45
2023-03-13T04:01:13.329Z,13.49
2023-03-13T04:03:41.140Z,13.51
2023-03-13T04:06:09.986Z,13.53
2023-03-13T04:08:39.095Z,13.82
2023-03-13T04:11:06.870Z,13.73
2023-03-13T04:13:34.700Z,13.57
2023-03-13T04:16:08.255Z,13.82
2023-03-13T04:18:35.982Z,13.63
2023-03-13T04:21:05.579Z,13.64
2023-03-13T04:23:33.364Z,13.82
2023-03-13T04:26:02.479Z,13.52
2023-03-13T04:28:30.227Z,13.76
2023-03-13T04:30:58.301Z,13.73
2023-03-13T04:33:26.456Z,13.90
2023-03-13T04:35:54.187Z,14.12
2023-03-13T04:38:22.088Z,13.59
2023-03-13T04:40:49.915Z,13.77
2023-03-13T04:43:19.000Z,13.79
2023-03-13T04:45:47.005Z,13.86
2023-03-13T04:48:14.777Z,13.85
2023-03-13T04:50:42.561Z,13.48
2023-03-13T04:53:10.320Z,13.52
2023-03-13T04:55:38.075Z,13.79
2023-03-13T04:58:05.842Z,13.51
2023-03-13T05:00:35.020Z,13.44
2023-03-13T05:03:02.797Z,13.84
2023-03-13T05:05:30.557Z,13.56
2023-03-13T05:07:58.388Z,13.73
2023-03-13T05:10:26.321Z,13.76
2023-03-13T05:12:54.059Z,13.58
2023-03-13T05:15:21.777Z,13.98
2023-03-13T05:17:52.969Z,13.84
2023-03-13T05:20:22.018Z,13.99
2023-03-13T05:22:49.854Z,13.83
2023-03-13T05:25:17.701Z,13.72
2023-03-13T05:27:46.504Z,14.08
2023-03-13T05:30:14.533Z,13.63
2023-03-13T05:32:42.312Z,13.85
2023-03-13T05:35:11.462Z,13.70
2023-03-13T05:37:41.275Z,13.59
2023-03-13T05:40:10.703Z,13.63
2023-03-13T05:42:38.456Z,13.85
2023-03-13T05:45:08.810Z,13.72
2023-03-13T05:47:38.570Z,13.84
2023-03-13T05:50:07.823Z,13.58
2023-03-13T05:52:36.909Z,13.69
2023-03-13T05:55:04.757Z,13.87
2023-03-13T05:57:32.444Z,13.68
2023-03-13T06:00:00.558Z,13.68
2023-03-13T06:02:28.332Z,14.03
2023-03-13T06:04:56.227Z,13.68
2023-03-13T06:07:24.013Z,13.94
2023-03-13T06:09:53.067Z,13.67
2023-03-13T06:12:20.803Z,13.70
2023-03-13T06:14:48.504Z,13.82
2023-03-13T06:17:16.348Z,13.64
2023-03-13T06:19:44.165Z,13.71
2023-03-13T06:22:11.853Z,13.74
2023-03-13T06:24:39.639Z,13.52
2023-03-13T06:27:09.772Z,13.74
2023-03-13T06:29:37.640Z,13.77
2023-03-13T06:32:06.079Z,13.51
2023-03-13T06:34:34.008Z,13.75
2023-03-13T06:37:01.880Z,14.14
2023-03-13T06:39:29.792Z,13.95
2023-03-13T06:41:57.505Z,13.50
2023-03-13T06:44:27.204Z,13.72
2023-03-13T06:46:55.094Z,13.89
2023-03-13T06:49:22.921Z,13.73
2023-03-13T06:51:50.656Z,13.84
2023-03-13T06:54:18.504Z,13.84
2023-03-13T06:56:46.228Z,13.97
2023-03-13T06:59:13.967Z,14.11
2023-03-13T07:01:43.103Z,14.04
2023-03-13T07:04:14.229Z,14.12
2023-03-13T07:06:42.020Z,13.70
2023-03-13T07:09:10.361Z,13.96
2023-03-13T07:11:38.101Z,13.99
2023-03-13T07:14:16.614Z,13.90
2023-03-13T07:16:46.864Z,13.86
2023-03-13T07:19:15.228Z,14.08
2023-03-13T07:21:43.985Z,13.93
2023-03-13T07:24:11.813Z,13.77
2023-03-13T07:26:40.340Z,13.77
2023-03-13T07:29:08.991Z,13.98
2023-03-13T07:31:36.844Z,14.10
2023-03-13T07:34:06.224Z,14.20
2023-03-13T07:36:35.440Z,14.21
2023-03-13T07:39:03.289Z,14.22
2023-03-13T07:41:31.023Z,13.89
2023-03-13T07:43:58.719Z,14.10
2023-03-13T07:46:26.656Z,13.84
2023-03-13T07:48:55.238Z,14.22
2023-03-13T07:51:42.178Z,14.02
2023-03-13T07:54:11.816Z,14.00
2023-03-13T07:56:39.937Z,13.96
2023-03-13T07:59:07.933Z,14.30
2023-03-13T08:01:35.883Z,14.66
2023-03-13T08:04:04.097Z,14.10
2023-03-13T08:06:36.689Z,14.23
2023-03-13T08:09:05.598Z,14.42
2023-03-13T08:11:33.637Z,14.19
2023-03-13T08:14:01.429Z,14.28
2023-03-13T08:16:31.056Z,14.51
2023-03-13T08:19:00.058Z,14.35
2023-03-13T08:21:29.714Z,14.20
2023-03-13T08:24:01.201Z,14.23
2023-03-13T08:26:30.773Z,14.26
2023-03-13T08:29:00.224Z,14.59
2023-03-13T08:31:30.076Z,14.41
2023-03-13T08:33:58.187Z,14.51
2023-03-13T08:36:27.275Z,14.43
2023-03-13T08:38:58.947Z,14.57
2023-03-13T08:41:29.621Z,14.37
2023-03-13T08:43:58.598Z,14.42
2023-03-13T08:46:26.942Z,14.14
2023-03-13T08:48:55.947Z,14.17
2023-03-13T08:51:25.381Z,14.23
2023-03-13T08:53:53.755Z,14.31
2023-03-13T08:56:23.548Z,14.26
2023-03-13T08:58:53.695Z,14.32
2023-03-13T09:01:23.127Z,14.36
2023-03-13T09:03:51.493Z,14.40
2023-03-13T09:06:19.406Z,14.30
2023-03-13T09:08:47.163Z,14.31
2023-03-13T09:11:17.312Z,14.61
2023-03-13T09:13:47.250Z,14.81
2023-03-13T09:16:18.042Z,14.60
2023-03-13T09:18:46.137Z,14.43
2023-03-13T09:21:16.637Z,14.59
2023-03-13T09:23:44.376Z,15.08
2023-03-13T09:26:13.193Z,14.78
2023-03-13T09:28:42.069Z,15.04
2023-03-13T09:31:11.621Z,15.09
2023-03-13T09:33:41.512Z,15.49
2023-03-13T09:36:10.038Z,15.23
2023-03-13T09:38:38.270Z,14.87
2023-03-13T09:41:21.069Z,14.95
2023-03-13T09:43:53.012Z,14.94
2023-03-13T09:46:26.559Z,15.21
2023-03-13T09:48:58.503Z,15.27
2023-03-13T09:51:30.544Z,15.10
2023-03-13T09:54:03.067Z,15.16
2023-03-13T09:56:35.254Z,15.66
2023-03-13T09:59:12.974Z,15.48
2023-03-13T10:01:44.057Z,15.16
2023-03-13T10:04:28.779Z,14.89
2023-03-13T10:06:56.705Z,15.04
2023-03-13T10:09:29.410Z,15.31
2023-03-13T10:12:05.886Z,15.28
2023-03-13T10:14:42.947Z,15.15
2023-03-13T10:17:21.190Z,15.24
2023-03-13T10:19:56.994Z,15.28
2023-03-13T10:22:27.769Z,15.62
2023-03-13T10:24:59.275Z,14.92
2023-03-13T10:27:27.200Z,15.19
2023-03-13T10:29:55.024Z,15.19
2023-03-13T10:32:23.030Z,15.31
2023-03-13T10:34:58.349Z,15.62
2023-03-13T10:37:27.580Z,15.84
2023-03-13T10:39:56.085Z,15.94
2023-03-13T10:42:28.800Z,16.63
2023-03-13T10:45:00.613Z,16.13
2023-03-13T10:47:29.062Z,16.17
2023-03-13T10:49:59.699Z,16.05
2023-03-13T10:52:33.630Z,16.02
2023-03-13T10:55:03.856Z,16.18
2023-03-13T10:57:32.684Z,16.14
2023-03-13T11:00:03.771Z,15.99
2023-03-13T11:02:35.463Z,15.92
2023-03-13T11:05:31.668Z,16.43
2023-03-13T11:07:59.424Z,16.23
2023-03-13T11:10:29.871Z,16.17
2023-03-13T11:12:59.949Z,15.91
2023-03-13T11:15:33.667Z,16.11
2023-03-13T11:18:07.721Z,16.20
2023-03-13T11:20:40.378Z,15.53
2023-03-13T11:23:19.754Z,15.81
2023-03-13T11:26:01.118Z,17.13
2023-03-13T11:28:40.978Z,17.35
2023-03-13T11:31:15.655Z,16.54
2023-03-13T11:33:57.514Z,17.09
2023-03-13T11:36:35.090Z,17.19
2023-03-13T11:39:17.520Z,16.28
2023-03-13T11:41:59.610Z,16.71
2023-03-13T11:44:47.837Z,17.11
2023-03-13T11:47:33.766Z,16.48
2023-03-13T11:50:20.027Z,16.81
2023-03-13T11:53:05.143Z,16.52
2023-03-13T11:55:46.623Z,16.67
2023-03-13T11:58:35.430Z,16.02
2023-03-13T12:01:07.584Z,16.20
2023-03-13T12:03:41.809Z,16.68
2023-03-13T12:06:27.997Z,15.88
2023-03-13T12:09:04.220Z,15.99
2023-03-13T12:11:38.086Z,15.82
2023-03-13T12:14:13.085Z,15.87
2023-03-13T12:16:44.810Z,16.15
2023-03-13T12:19:16.157Z,16.30
2023-03-13T12:21:49.062Z,16.03
2023-03-13T12:24:27.510Z,16.37
2023-03-13T12:26:59.703Z,16.16
2023-03-13T12:29:40.952Z,16.76
2023-03-13T12:32:17.993Z,17.17
2023-03-13T12:34:56.611Z,16.70
2023-03-13T12:37:31.910Z,15.99
2023-03-13T12:40:10.453Z,16.08
2023-03-13T12:42:47.017Z,16.03
2023-03-13T12:45:18.700Z,16.01
2023-03-13T12:48:10.011Z,16.04
2023-03-13T12:50:52.654Z,16.14
2023-03-13T12:53:46.487Z,16.04
2023-03-13T12:56:42.639Z,16.08
2023-03-13T12:59:15.740Z,16.48
2023-03-13T13:01:46.784Z,16.49
2023-03-13T13:04:16.867Z,16.21
2023-03-13T13:07:03.018Z,16.53
2023-03-13T13:09:32.685Z,16.67
2023-03-13T13:12:04.843Z,16.53
2023-03-13T13:15:04.021Z,17.24
2023-03-13T13:17:49.485Z,17.47
2023-03-13T13:20:37.646Z,17.75
2023-03-13T13:23:33.649Z,17.89
2023-03-13T13:26:47.136Z,16.61
2023-03-13T13:29:57.837Z,15.57
2023-03-13T13:32:42.158Z,16.07
2023-03-13T13:35:23.404Z,15.69
2023-03-13T13:37:51.193Z,15.77
2023-03-13T13:40:22.913Z,15.75
2023-03-13T13:42:56.201Z,15.86
2023-03-13T13:45:28.500Z,15.97
2023-03-13T13:48:25.412Z,16.45
2023-03-13T13:51:34.560Z,16.45
2023-03-13T13:54:04.164Z,16.15
2023-03-13T13:56:37.364Z,16.07
2023-03-13T13:59:07.832Z,16.45
2023-03-13T14:01:37.587Z,16.54
2023-03-13T14:04:14.430Z,16.49
2023-03-13T14:06:45.710Z,16.10
2023-03-13T14:09:23.628Z,16.40
2023-03-13T14:11:51.446Z,17.14
2023-03-13T14:14:21.458Z,16.13
2023-03-13T14:16:50.894Z,16.76
2023-03-13T14:19:31.096Z,16.65
2023-03-13T14:22:01.332Z,16.12
2023-03-13T14:24:29.125Z,17.26
2023-03-13T14:26:57.181Z,16.55
2023-03-13T14:29:27.134Z,17.05
2023-03-13T14:31:56.829Z,16.71
2023-03-13T14:34:25.836Z,16.21
2023-03-13T14:37:04.512Z,16.07
2023-03-13T14:39:39.691Z,16.53
2023-03-13T14:42:11.707Z,16.38
2023-03-13T14:44:40.559Z,16.17
2023-03-13T14:47:10.210Z,15.97
2023-03-13T14:49:38.503Z,15.98
2023-03-13T14:52:18.506Z,15.88
2023-03-13T14:54:54.782Z,16.03
2023-03-13T14:57:27.507Z,15.89
2023-03-13T14:59:56.894Z,16.03
2023-03-13T15:02:27.159Z,15.88
2023-03-13T15:04:59.370Z,15.67
2023-03-13T15:07:36.787Z,15.91
2023-03-13T15:10:20.078Z,15.39
2023-03-13T15:12:47.877Z,15.39
2023-03-13T15:15:15.881Z,15.83
2023-03-13T15:17:43.636Z,15.75
2023-03-13T15:20:13.715Z,15.71
2023-03-13T15:22:44.910Z,16.01
2023-03-13T15:25:17.413Z,15.44
2023-03-13T15:27:45.205Z,15.27
2023-03-13T15:30:17.198Z,15.20
2023-03-13T15:32:46.623Z,14.84
2023-03-13T15:35:25.243Z,15.54
2023-03-13T15:37:54.765Z,15.25
2023-03-13T15:40:24.266Z,15.07
2023-03-13T15:42:52.885Z,15.08
2023-03-13T15:45:21.275Z,15.53
2023-03-13T15:47:49.177Z,15.10
2023-03-13T15:50:20.386Z,15.18
2023-03-13T15:52:48.246Z,15.17
2023-03-13T15:55:17.518Z,15.34
2023-03-13T15:57:47.238Z,15.63
2023-03-13T16:00:19.764Z,15.33
2023-03-13T16:02:47.497Z,15.79
2023-03-13T16:05:15.432Z,15.69
2023-03-13T16:07:43.165Z,15.35
2023-03-13T16:10:18.946Z,15.56
2023-03-13T16:12:46.777Z,15.40
2023-03-13T16:15:14.564Z,15.36
2023-03-13T16:17:42.422Z,15.01
2023-03-13T16:20:16.062Z,14.89
2023-03-13T16:22:44.196Z,14.55
2023-03-13T16:25:12.512Z,14.84
2023-03-13T16:27:42.041Z,14.97
2023-03-13T16:30:17.323Z,15.27
2023-03-13T16:32:45.433Z,14.66
2023-03-13T16:35:13.204Z,14.78
2023-03-13T16:37:41.003Z,14.82
2023-03-13T16:40:18.175Z,14.27
2023-03-13T16:42:47.717Z,14.61
2023-03-13T16:45:15.975Z,14.45
2023-03-13T16:47:45.271Z,14.15
2023-03-13T16:50:21.922Z,14.22
2023-03-13T16:52:49.862Z,14.43
2023-03-13T16:55:18.270Z,13.98
2023-03-13T16:57:47.751Z,13.81
2023-03-13T17:00:20.642Z,13.57
2023-03-13T17:02:50.562Z,13.19
2023-03-13T17:05:18.922Z,13.09
2023-03-13T17:07:48.277Z,12.95
2023-03-13T17:10:21.499Z,12.68
2023-03-13T17:12:51.201Z,12.60
2023-03-13T17:15:20.075Z,12.92
2023-03-13T17:17:51.641Z,12.19
2023-03-13T17:20:22.256Z,12.27
2023-03-13T17:22:50.276Z,12.30
2023-03-13T17:25:18.247Z,12.63
2023-03-13T17:27:47.487Z,12.61
2023-03-13T17:30:23.134Z,12.64
2023-03-13T17:32:51.243Z,12.54
2023-03-13T17:35:20.693Z,12.29
2023-03-13T17:37:48.928Z,12.57
2023-03-13T17:40:19.795Z,12.57
2023-03-13T17:42:48.963Z,12.44
2023-03-13T17:45:17.687Z,12.67
2023-03-13T17:47:49.265Z,12.42
2023-03-13T17:50:19.858Z,12.35
2023-03-13T17:52:47.640Z,12.08
2023-03-13T17:55:15.824Z,12.26
2023-03-13T17:57:44.267Z,12.05
2023-03-13T18:00:20.985Z,12.06
2023-03-13T18:02:50.394Z,12.21
2023-03-13T18:05:18.706Z,12.21
2023-03-13T18:07:46.830Z,12.40
2023-03-13T18:10:20.427Z,12.15
2023-03-13T18:12:48.386Z,12.40
2023-03-13T18:15:16.337Z,12.55
2023-03-13T18:17:44.610Z,12.57
2023-03-13T18:20:18.586Z,12.46
2023-03-13T18:22:46.776Z,12.43
2023-03-13T18:25:15.134Z,12.68
2023-03-13T18:27:42.938Z,12.47
2023-03-13T18:30:22.931Z,12.80
2023-03-13T18:32:51.007Z,12.69
2023-03-13T18:35:20.223Z,12.78
2023-03-13T18:37:49.021Z,12.65
2023-03-13T18:40:19.543Z,12.27
2023-03-13T18:42:47.907Z,12.41
2023-03-13T18:45:16.550Z,12.56
2023-03-13T18:47:44.373Z,12.34
2023-03-13T18:50:23.563Z,12.66
2023-03-13T18:52:51.546Z,12.61
2023-03-13T18:55:19.285Z,12.43
2023-03-13T18:57:47.066Z,12.44
2023-03-13T19:00:20.321Z,12.91
2023-03-13T19:02:49.496Z,12.67
2023-03-13T19:05:18.309Z,12.67
2023-03-13T19:07:48.179Z,12.40
2023-03-13T19:10:20.847Z,12.27
2023-03-13T19:12:48.726Z,12.27
2023-03-13T19:15:16.862Z,12.15
2023-03-13T19:17:45.215Z,12.47
2023-03-13T19:20:16.103Z,12.34
2023-03-13T19:22:43.900Z,11.73
2023-03-13T19:25:14.127Z,12.04
2023-03-13T19:27:42.307Z,11.94
2023-03-13T19:30:21.999Z,11.75
2023-03-13T19:32:50.228Z,11.79
2023-03-13T19:35:21.168Z,11.84
2023-03-13T19:37:49.214Z,12.01
2023-03-13T19:40:22.277Z,11.94
2023-03-13T19:42:50.135Z,11.85
2023-03-13T19:45:19.655Z,11.92
2023-03-13T19:47:47.790Z,12.16
2023-03-13T19:50:21.085Z,11.95
2023-03-13T19:52:48.906Z,12.06
2023-03-13T19:55:17.172Z,12.02
2023-03-13T19:57:46.453Z,11.93
2023-03-13T20:00:20.907Z,12.07
2023-03-13T20:02:49.108Z,11.95
2023-03-13T20:05:17.075Z,11.91
2023-03-13T20:07:45.510Z,11.71
2023-03-13T20:10:13.724Z,11.62
2023-03-13T20:12:41.455Z,12.10
2023-03-13T20:15:11.871Z,11.76
2023-03-13T20:17:39.644Z,11.54
2023-03-13T20:20:08.563Z,11.99
2023-03-13T20:22:36.652Z,11.92
2023-03-13T20:25:04.638Z,11.77
2023-03-13T20:27:32.391Z,11.81
2023-03-13T20:30:00.765Z,12.05
2023-03-13T20:32:30.071Z,11.92
2023-03-13T20:34:57.941Z,12.06
2023-03-13T20:37:25.720Z,11.69
2023-03-13T20:39:53.435Z,12.06
2023-03-13T20:42:22.651Z,11.85
2023-03-13T20:44:50.413Z,11.86
2023-03-13T20:47:18.622Z,11.94
2023-03-13T20:49:47.848Z,11.92
2023-03-13T20:52:15.667Z,11.95
2023-03-13T20:54:43.398Z,11.77
2023-03-13T20:57:11.363Z,11.75
2023-03-13T20:59:39.122Z,11.73
2023-03-13T21:02:07.473Z,11.78
2023-03-13T21:04:35.263Z,11.76
2023-03-13T21:07:05.332Z,11.58
2023-03-13T21:09:34.323Z,12.10
2023-03-13T21:12:02.596Z,11.71
2023-03-13T21:14:30.624Z,11.91
2023-03-13T21:16:58.372Z,11.72
2023-03-13T21:19:26.117Z,11.54
2023-03-13T21:21:53.855Z,11.77
2023-03-13T21:24:22.933Z,11.86
2023-03-13T21:26:50.635Z,11.65
2023-03-13T21:29:18.447Z,11.97
2023-03-13T21:31:46.264Z,11.85
2023-03-13T21:34:14.015Z,11.76
2023-03-13T21:36:41.731Z,11.87
2023-03-13T21:39:09.432Z,12.03
2023-03-13T21:41:38.572Z,11.88
2023-03-13T21:44:07.924Z,11.87
2023-03-13T21:46:35.681Z,11.95
2023-03-13T21:49:03.783Z,11.74
2023-03-13T21:51:31.526Z,11.81
2023-03-13T21:53:59.225Z,11.78
2023-03-13T21:56:26.924Z,12.00
2023-03-13T21:58:56.219Z,11.84
2023-03-13T22:01:24.048Z,11.64
2023-03-13T22:03:51.913Z,11.84
2023-03-13T22:06:22.492Z,12.08
2023-03-13T22:08:51.020Z,11.98
2023-03-13T22:11:18.865Z,11.81
2023-03-13T22:13:46.683Z,11.61
2023-03-13T22:16:15.849Z,11.73
2023-03-13T22:18:43.948Z,11.83
2023-03-13T22:21:11.709Z,12.03
2023-03-13T22:23:39.531Z,11.83
2023-03-13T22:26:07.811Z,12.09
2023-03-13T22:28:35.570Z,11.95
2023-03-13T22:31:05.331Z,11.81
2023-03-13T22:33:35.156Z,12.14
2023-03-13T22:36:03.412Z,11.96
2023-03-13T22:38:31.448Z,11.96
2023-03-13T22:41:02.606Z,12.11
2023-03-13T22:43:30.854Z,11.94
2023-03-13T22:45:59.900Z,12.04
2023-03-13T22:48:27.848Z,11.91
2023-03-13T22:51:08.445Z,11.88
2023-03-13T22:53:37.761Z,12.14
2023-03-13T22:56:06.347Z,12.07
2023-03-13T22:58:34.500Z,11.84
2023-03-13T23:01:02.310Z,12.28
2023-03-13T23:03:30.106Z,12.11
2023-03-13T23:05:57.833Z,12.33
2023-03-13T23:08:26.919Z,12.24
2023-03-13T23:10:54.911Z,12.45
2023-03-13T23:13:22.609Z,12.52
2023-03-13T23:15:57.415Z,12.14
2023-03-13T23:18:26.285Z,12.06
2023-03-13T23:20:54.340Z,12.36
2023-03-13T23:23:22.216Z,12.22
2023-03-13T23:25:51.427Z,12.19
2023-03-13T23:28:19.135Z,12.01
2023-03-13T23:30:46.840Z,12.13
2023-03-13T23:33:14.540Z,12.12
2023-03-13T23:35:43.826Z,12.27
2023-03-13T23:38:12.507Z,12.33
2023-03-13T23:40:40.249Z,12.42
2023-03-13T23:43:09.416Z,12.60
2023-03-13T23:45:37.669Z,12.36
2023-03-13T23:48:05.832Z,12.11
2023-03-13T23:50:33.646Z,12.32
2023-03-13T23:53:01.363Z,12.33
2023-03-13T23:55:29.190Z,12.39
2023-03-13T23:57:56.956Z,12.22
